Time;durP1;ratioP1;P1;durP2;ratioP2;P2;SDS_P1;SDS_P2;PMS_P1;PMS_P2;Temp;Humidity;BMP_temperature;BMP_pressure;BME280_temperature;BME280_humidity;BME280_pressure;Samples;Min_cycle;Max_cycle;Signal;HPM_P1;HPM_P2
2022/09/16 00:00:13;;;;;;;3.50;1.30;;;21.60;64.30;;;;;;5044960;28;20405;-65
2022/09/16 00:02:39;;;;;;;3.60;1.63;;;21.60;64.30;;;;;;5045234;28;20024;-66
2022/09/16 00:05:05;;;;;;;6.03;1.63;;;21.60;64.40;;;;;;5044725;28;20033;-65
2022/09/16 00:07:30;;;;;;;3.53;1.50;;;21.50;64.30;;;;;;5024969;28;20498;-66
2022/09/16 00:09:56;;;;;;;3.20;1.27;;;21.60;64.40;;;;;;5045086;28;20071;-65
2022/09/16 00:12:21;;;;;;;5.57;1.60;;;21.50;64.40;;;;;;5043500;28;20412;-65
2022/09/16 00:14:47;;;;;;;5.22;1.60;;;21.50;64.40;;;;;;5045224;28;20485;-65
2022/09/16 00:17:13;;;;;;;2.88;1.33;;;21.50;64.40;;;;;;5045165;28;20401;-64
2022/09/16 00:19:38;;;;;;;4.25;1.50;;;21.50;64.50;;;;;;5044893;28;20493;-65
2022/09/16 00:22:04;;;;;;;4.57;1.70;;;21.50;64.40;;;;;;5043425;28;20017;-65
2022/09/16 00:24:30;;;;;;;4.72;1.48;;;21.50;64.40;;;;;;5026998;28;20621;-65
2022/09/16 00:26:56;;;;;;;3.42;1.30;;;21.50;64.50;;;;;;5042509;28;20032;-65
2022/09/16 00:29:21;;;;;;;4.70;1.50;;;21.50;64.50;;;;;;5042607;28;20032;-65
2022/09/16 00:31:47;;;;;;;3.53;1.55;;;21.50;64.50;;;;;;5042270;28;20024;-65
2022/09/16 00:34:12;;;;;;;4.18;1.55;;;21.50;64.50;;;;;;5043763;28;20111;-65
2022/09/16 00:36:38;;;;;;;5.30;1.60;;;21.50;64.60;;;;;;5043498;28;20159;-65
2022/09/16 00:39:04;;;;;;;4.18;1.50;;;21.50;64.60;;;;;;5045203;28;20044;-66
2022/09/16 00:41:32;;;;;;;3.95;1.40;;;21.50;64.60;;;;;;5045413;28;21018;-66
2022/09/16 00:44:00;;;;;;;3.05;1.45;;;21.50;64.60;;;;;;5044879;28;20479;-65
2022/09/16 00:46:28;;;;;;;3.42;1.40;;;21.40;64.60;;;;;;5042664;28;20025;-65
2022/09/16 00:48:54;;;;;;;4.85;1.42;;;21.40;64.60;;;;;;5024908;28;20452;-65
2022/09/16 00:51:19;;;;;;;3.65;1.38;;;21.50;64.60;;;;;;5043067;28;20025;-65
2022/09/16 00:53:55;;;;;;;3.97;1.38;;;21.40;64.60;;;;;;5042733;28;20029;-65
2022/09/16 00:56:22;;;;;;;4.93;1.50;;;21.40;64.60;;;;;;5023584;28;20553;-65
2022/09/16 00:59:01;;;;;;;3.20;1.30;;;21.40;64.70;;;;;;5028475;28;20040;-65
2022/09/16 01:01:29;;;;;;;3.58;1.60;;;21.40;64.70;;;;;;5017646;28;20025;-65
2022/09/16 01:03:55;;;;;;;4.50;1.50;;;21.40;64.60;;;;;;5025794;28;20025;-65
2022/09/16 01:06:21;;;;;;;4.20;1.40;;;21.40;64.70;;;;;;5024639;28;20047;-65
2022/09/16 01:08:48;;;;;;;2.70;1.25;;;21.40;64.70;;;;;;5044592;28;20035;-65
2022/09/16 01:11:13;;;;;;;3.78;1.30;;;21.40;64.80;;;;;;5042728;28;20032;-64
2022/09/16 01:13:39;;;;;;;3.63;1.35;;;21.40;64.70;;;;;;5043115;28;20024;-65
2022/09/16 01:16:17;;;;;;;3.72;1.50;;;21.40;65.80;;;;;;5024956;28;20104;-65
2022/09/16 01:19:25;;;;;;;4.32;1.40;;;21.40;64.80;;;;;;5022478;28;20064;-65
2022/09/16 01:22:04;;;;;;;2.95;1.08;;;21.40;64.80;;;;;;4983645;28;20091;-65
2022/09/16 01:24:44;;;;;;;2.80;1.40;;;21.40;64.80;;;;;;4983752;28;20042;-65
2022/09/16 01:27:13;;;;;;;3.78;1.40;;;21.40;64.90;;;;;;4980813;28;20098;-65
2022/09/16 01:29:46;;;;;;;3.13;1.10;;;21.40;64.80;;;;;;4984015;28;20035;-65
2022/09/16 01:32:36;;;;;;;4.50;1.40;;;21.30;64.80;;;;;;4983944;28;20156;-65
2022/09/16 01:35:08;;;;;;;4.57;1.33;;;21.40;64.80;;;;;;4984931;28;20110;-65
2022/09/16 01:37:43;;;;;;;4.07;1.38;;;21.30;64.80;;;;;;4975683;28;20526;-65
2022/09/16 01:40:50;;;;;;;4.38;1.80;;;21.30;64.90;;;;;;4983399;28;20042;-65
2022/09/16 01:43:53;;;;;;;4.38;1.40;;;21.30;64.90;;;;;;4955590;28;21102;-65
2022/09/16 01:46:39;;;;;;;4.00;1.50;;;21.30;64.90;;;;;;4937381;28;20039;-65
2022/09/16 01:49:19;;;;;;;4.25;1.30;;;21.30;64.90;;;;;;4938505;28;20035;-65
2022/09/16 01:51:56;;;;;;;2.70;1.20;;;21.30;65.00;;;;;;4947438;28;20039;-65
2022/09/16 01:55:06;;;;;;;3.80;1.30;;;21.30;65.00;;;;;;4915940;28;20089;-65
2022/09/16 01:57:51;;;;;;;3.15;1.20;;;21.30;65.00;;;;;;4890625;29;20040;-65
2022/09/16 02:00:17;;;;;;;2.58;1.13;;;21.30;64.90;;;;;;4906683;29;20410;-65
2022/09/16 02:02:49;;;;;;;2.50;1.30;;;21.20;64.90;;;;;;4893393;29;20032;-65
2022/09/16 02:05:23;;;;;;;2.60;1.17;;;21.30;65.00;;;;;;4917959;29;20615;-64
2022/09/16 02:07:50;;;;;;;;;;;21.30;65.00;;;;;;4893894;29;20119;-65
2022/09/16 02:10:23;;;;;;;3.80;1.40;;;21.20;65.00;;;;;;4917182;29;19911;-65
2022/09/16 02:12:49;;;;;;;3.20;1.20;;;21.20;65.00;;;;;;4911857;29;20073;-65
2022/09/16 02:15:20;;;;;;;3.15;1.10;;;21.20;65.00;;;;;;4901759;29;20032;-65
2022/09/16 02:17:48;;;;;;;3.70;1.15;;;21.20;65.00;;;;;;4893247;29;20047;-65
2022/09/16 02:20:16;;;;;;;4.07;1.42;;;21.20;65.10;;;;;;4935770;28;20058;-65
2022/09/16 02:22:55;;;;;;;3.05;1.30;;;21.20;65.00;;;;;;4939462;28;20087;-65
2022/09/16 02:25:20;;;;;;;2.38;1.20;;;21.20;65.00;;;;;;4912708;28;20519;-65
2022/09/16 02:27:47;;;;;;;4.38;1.30;;;21.20;65.00;;;;;;4926596;28;20043;-65
2022/09/16 02:30:15;;;;;;;3.65;1.50;;;21.20;65.00;;;;;;4927065;29;20027;-65
2022/09/16 02:32:43;;;;;;;6.30;1.50;;;21.20;65.00;;;;;;4925876;28;20024;-65
2022/09/16 02:35:10;;;;;;;2.90;1.35;;;21.20;65.10;;;;;;5036827;28;20039;-65
2022/09/16 02:37:44;;;;;;;4.68;1.40;;;21.20;65.10;;;;;;5042550;28;20029;-65
2022/09/16 02:40:30;;;;;;;3.60;1.30;;;21.20;65.10;;;;;;5024535;28;20037;-65
2022/09/16 02:42:56;;;;;;;3.08;1.33;;;21.20;65.00;;;;;;5046099;28;20037;-65
2022/09/16 02:45:24;;;;;;;3.40;1.20;;;21.20;65.00;;;;;;5025623;28;20021;-65
2022/09/16 02:48:04;;;;;;;3.47;1.40;;;21.20;65.00;;;;;;5027290;28;20074;-65
2022/09/16 02:50:51;;;;;;;4.60;1.50;;;21.20;65.00;;;;;;5027862;28;20127;-65
2022/09/16 02:53:36;;;;;;;3.47;1.40;;;21.20;65.00;;;;;;5032690;28;20032;-65
2022/09/16 02:56:05;;;;;;;3.78;1.40;;;21.10;65.00;;;;;;5043898;28;20033;-65
2022/09/16 02:58:30;;;;;;;3.60;1.30;;;21.10;65.00;;;;;;5028786;28;20455;-65
2022/09/16 03:00:57;;;;;;;3.13;1.33;;;21.10;65.10;;;;;;5045158;28;20029;-65
2022/09/16 03:03:22;;;;;;;3.83;1.38;;;21.10;65.10;;;;;;5027491;28;20025;-65
2022/09/16 03:06:17;;;;;;;3.55;1.17;;;21.10;65.00;;;;;;5028247;28;20229;-65
2022/09/16 03:08:43;;;;;;;4.22;1.40;;;21.10;65.10;;;;;;5045788;28;20021;-65
2022/09/16 03:11:21;;;;;;;5.85;1.50;;;21.10;65.00;;;;;;5026506;28;20029;-65
2022/09/16 03:13:57;;;;;;;2.50;1.10;;;21.10;65.10;;;;;;5044740;28;20634;-65
2022/09/16 03:16:31;;;;;;;2.08;1.00;;;21.10;65.00;;;;;;5027183;28;20051;-65
2022/09/16 03:19:25;;;;;;;2.78;1.10;;;21.10;65.00;;;;;;5026424;28;20041;-66
2022/09/16 03:22:14;;;;;;;2.33;1.20;;;21.10;65.30;;;;;;5039512;28;20072;-65
2022/09/16 03:25:09;;;;;;;3.97;1.10;;;21.10;65.00;;;;;;5034564;28;20033;-65
2022/09/16 03:27:45;;;;;;;3.03;1.27;;;21.10;65.00;;;;;;5030090;28;20167;-65
2022/09/16 03:30:11;;;;;;;3.28;1.20;;;21.10;65.00;;;;;;5023574;28;20079;-65
2022/09/16 03:32:42;;;;;;;2.15;0.93;;;21.00;65.00;;;;;;5029051;28;20041;-65
2022/09/16 03:35:11;;;;;;;3.95;1.27;;;21.10;65.10;;;;;;5026756;28;20025;-65
2022/09/16 03:37:37;;;;;;;2.10;1.10;;;21.00;65.00;;;;;;5025906;28;20064;-65
2022/09/16 03:40:14;;;;;;;2.40;1.02;;;21.00;65.10;;;;;;5010129;28;20508;-65
2022/09/16 03:42:40;;;;;;;3.60;1.30;;;21.00;65.00;;;;;;5027419;28;20036;-65
2022/09/16 03:45:06;;;;;;;3.88;1.17;;;21.00;65.00;;;;;;5027816;28;20029;-66
2022/09/16 03:47:32;;;;;;;2.42;1.10;;;21.00;65.00;;;;;;5042858;28;20043;-65
2022/09/16 03:49:58;;;;;;;2.28;1.10;;;21.00;65.10;;;;;;5028769;28;20096;-65
2022/09/16 03:52:23;;;;;;;2.58;1.27;;;21.00;65.10;;;;;;5046472;28;20040;-65
2022/09/16 03:54:49;;;;;;;2.78;0.98;;;21.00;65.10;;;;;;5045082;28;20293;-65
2022/09/16 03:57:15;;;;;;;2.53;1.10;;;20.90;65.10;;;;;;5044899;28;20413;-65
2022/09/16 03:59:40;;;;;;;3.88;1.15;;;20.90;65.10;;;;;;5048336;28;20069;-65
2022/09/16 04:02:06;;;;;;;2.92;1.20;;;21.00;65.10;;;;;;5043681;28;20024;-65
2022/09/16 04:04:32;;;;;;;2.60;1.02;;;20.90;65.10;;;;;;5045358;28;20031;-64
2022/09/16 04:06:57;;;;;;;2.92;1.30;;;21.00;65.20;;;;;;5045448;28;20478;-65
2022/09/16 04:09:23;;;;;;;2.90;1.23;;;21.00;65.20;;;;;;5041946;28;20057;-65
2022/09/16 04:11:50;;;;;;;3.05;1.10;;;20.90;65.10;;;;;;5024941;28;20083;-65
2022/09/16 04:14:16;;;;;;;2.63;1.10;;;20.90;65.10;;;;;;5026989;28;20434;-65
2022/09/16 04:16:43;;;;;;;1.92;0.93;;;20.90;65.10;;;;;;5046045;28;20060;-65
2022/09/16 04:19:12;;;;;;;1.75;0.93;;;21.00;65.20;;;;;;5045052;28;20509;-65
2022/09/16 04:21:38;;;;;;;2.65;1.00;;;20.90;65.20;;;;;;5029200;28;20432;-65
2022/09/16 04:24:04;;;;;;;2.60;1.00;;;20.90;65.20;;;;;;5042750;28;20500;-65
2022/09/16 04:26:30;;;;;;;2.92;1.13;;;20.90;65.10;;;;;;5042972;28;20017;-66
2022/09/16 04:28:55;;;;;;;3.75;1.27;;;20.90;65.20;;;;;;5043684;28;20032;-65
2022/09/16 04:31:21;;;;;;;2.45;1.00;;;20.90;65.20;;;;;;5045828;28;20066;-65
2022/09/16 04:33:47;;;;;;;2.80;1.08;;;20.90;65.20;;;;;;5046524;28;20037;-65
2022/09/16 04:36:14;;;;;;;2.83;1.10;;;20.90;65.20;;;;;;5044366;28;20032;-65
2022/09/16 04:38:42;;;;;;;3.45;1.20;;;20.90;65.20;;;;;;5025449;28;20167;-65
2022/09/16 04:41:13;;;;;;;2.47;1.02;;;20.90;65.20;;;;;;5025914;28;20111;-65
2022/09/16 04:43:39;;;;;;;2.42;0.90;;;20.90;66.30;;;;;;5044923;28;20074;-65
2022/09/16 04:46:05;;;;;;;2.17;0.88;;;20.90;65.20;;;;;;5043465;28;20099;-65
2022/09/16 04:48:31;;;;;;;1.98;1.00;;;20.90;65.20;;;;;;5043321;28;20025;-65
2022/09/16 04:51:05;;;;;;;4.65;1.20;;;20.80;65.20;;;;;;5043182;28;20051;-65
2022/09/16 04:53:31;;;;;;;3.10;1.10;;;20.90;65.20;;;;;;5042906;28;20025;-65
2022/09/16 04:56:07;;;;;;;4.07;1.15;;;20.80;65.10;;;;;;5045272;28;20287;-65
2022/09/16 04:58:33;;;;;;;1.70;0.93;;;20.80;65.20;;;;;;5042425;28;20451;-65
2022/09/16 05:01:11;;;;;;;2.65;1.00;;;20.80;65.20;;;;;;5043959;28;20425;-65
2022/09/16 05:03:38;;;;;;;2.03;0.98;;;20.80;65.10;;;;;;5039561;28;20095;-65
2022/09/16 05:06:08;;;;;;;1.88;0.90;;;20.80;65.20;;;;;;5043586;28;20095;-65
2022/09/16 05:08:34;;;;;;;2.22;0.90;;;20.80;65.20;;;;;;5043500;28;20116;-65
2022/09/16 05:11:04;;;;;;;2.72;0.90;;;20.80;65.30;;;;;;5046244;28;20573;-65
2022/09/16 05:13:30;;;;;;;2.53;1.10;;;20.80;65.10;;;;;;5043630;28;20043;-65
2022/09/16 05:16:00;;;;;;;2.67;1.08;;;20.80;65.10;;;;;;5045703;28;20025;-65
2022/09/16 05:18:26;;;;;;;4.47;0.95;;;20.80;65.10;;;;;;5037311;28;20456;-64
2022/09/16 05:20:57;;;;;;;3.45;1.30;;;20.80;65.30;;;;;;5027709;28;20100;-64
2022/09/16 05:23:24;;;;;;;4.60;1.10;;;20.80;65.70;;;;;;5041963;28;20584;-64
2022/09/16 05:25:54;;;;;;;4.68;1.20;;;20.80;66.00;;;;;;5025885;28;20025;-64
2022/09/16 05:28:20;;;;;;;5.97;1.10;;;20.80;66.00;;;;;;5024158;28;20033;-63
2022/09/16 05:30:46;;;;;;;4.07;1.40;;;20.90;66.10;;;;;;5042448;28;20029;-63
2022/09/16 05:33:11;;;;;;;4.68;1.23;;;20.80;66.60;;;;;;5042213;28;20075;-63
2022/09/16 05:35:37;;;;;;;5.18;1.05;;;20.90;66.70;;;;;;5040248;28;20512;-63
2022/09/16 05:38:02;;;;;;;5.25;1.02;;;20.90;66.40;;;;;;5042805;28;20501;-64
2022/09/16 05:40:28;;;;;;;5.63;1.83;;;20.90;66.60;;;;;;5039035;28;20024;-64
2022/09/16 05:42:54;;;;;;;11.18;1.80;;;20.90;66.70;;;;;;5041119;28;20116;-64
2022/09/16 05:45:20;;;;;;;5.82;1.52;;;20.90;66.70;;;;;;5040135;28;20052;-63
2022/09/16 05:47:49;;;;;;;8.20;1.35;;;20.80;66.60;;;;;;5042443;28;20087;-64
2022/09/16 05:50:15;;;;;;;6.88;1.42;;;20.80;66.70;;;;;;5039224;28;20022;-64
2022/09/16 05:52:40;;;;;;;4.95;1.27;;;20.80;66.60;;;;;;5041971;28;20108;-63
2022/09/16 05:55:06;;;;;;;7.68;1.58;;;20.80;66.50;;;;;;5041384;28;20116;-64
2022/09/16 05:57:32;;;;;;;6.38;1.40;;;20.80;66.60;;;;;;5040148;28;20854;-64
2022/09/16 05:59:57;;;;;;;6.85;1.50;;;20.80;66.70;;;;;;5041362;28;20457;-63
2022/09/16 06:02:23;;;;;;;5.82;1.30;;;20.80;66.70;;;;;;5042836;28;20025;-63
2022/09/16 06:04:49;;;;;;;6.90;1.70;;;20.80;66.60;;;;;;5039699;28;20429;-64
2022/09/16 06:07:16;;;;;;;5.35;1.30;;;20.80;66.60;;;;;;5043285;28;20021;-63
2022/09/16 06:09:41;;;;;;;5.97;1.45;;;20.80;66.60;;;;;;5041025;28;20485;-63
2022/09/16 06:12:08;;;;;;;4.57;1.25;;;20.80;66.60;;;;;;5044882;28;20040;-63
2022/09/16 06:14:34;;;;;;;6.85;1.30;;;20.70;66.60;;;;;;5024980;28;20021;-63
2022/09/16 06:16:59;;;;;;;4.75;1.30;;;20.70;66.50;;;;;;5043481;28;21002;-64
2022/09/16 06:19:25;;;;;;;4.13;1.10;;;20.70;66.60;;;;;;5041715;28;20612;-64
2022/09/16 06:21:50;;;;;;;6.07;1.23;;;20.70;66.50;;;;;;5042863;28;20025;-64
2022/09/16 06:24:16;;;;;;;5.47;1.23;;;20.70;66.60;;;;;;5041437;28;20025;-64
2022/09/16 06:26:43;;;;;;;2.67;1.10;;;20.70;66.50;;;;;;5042600;28;20029;-64
2022/09/16 06:29:09;;;;;;;4.35;1.42;;;20.70;66.60;;;;;;5041233;28;20081;-64
2022/09/16 06:31:35;;;;;;;5.97;1.35;;;20.70;66.60;;;;;;5042067;28;20025;-63
2022/09/16 06:34:01;;;;;;;7.40;1.00;;;20.70;66.50;;;;;;5043425;28;20113;-63
2022/09/16 06:36:32;;;;;;;5.18;1.45;;;20.70;66.50;;;;;;5045048;28;20037;-65
2022/09/16 06:38:58;;;;;;;5.38;1.35;;;20.70;66.50;;;;;;5042370;28;20120;-64
2022/09/16 06:41:24;;;;;;;3.67;1.30;;;20.70;66.60;;;;;;5038335;28;20100;-64
2022/09/16 06:43:50;;;;;;;4.10;1.17;;;20.70;66.50;;;;;;5043895;28;20028;-63
2022/09/16 06:46:21;;;;;;;7.47;1.33;;;20.70;66.50;;;;;;5042497;28;20028;-63
2022/09/16 06:48:49;;;;;;;5.93;1.40;;;20.70;66.50;;;;;;5043228;28;20172;-63
2022/09/16 06:51:21;;;;;;;3.65;0.98;;;20.70;67.50;;;;;;5042450;28;20412;-63
2022/09/16 06:53:47;;;;;;;4.03;1.08;;;20.70;66.50;;;;;;5040343;28;20479;-64
2022/09/16 06:56:16;;;;;;;5.13;1.30;;;20.70;66.40;;;;;;5043560;28;20036;-64
2022/09/16 06:58:47;;;;;;;3.78;1.23;;;20.70;66.40;;;;;;5041837;28;20087;-64
2022/09/16 07:01:20;;;;;;;4.10;1.20;;;20.70;66.90;;;;;;5041540;28;20040;-63
2022/09/16 07:03:47;;;;;;;5.50;1.33;;;20.70;66.40;;;;;;5040442;28;20498;-63
2022/09/16 07:06:13;;;;;;;4.50;1.27;;;20.70;66.50;;;;;;5023259;28;20506;-64
2022/09/16 07:08:39;;;;;;;6.40;1.33;;;20.70;66.40;;;;;;5042271;28;20071;-64
2022/09/16 07:11:10;;;;;;;5.85;1.10;;;20.70;66.40;;;;;;5041941;28;20600;-64
2022/09/16 07:13:36;;;;;;;3.10;1.05;;;20.70;66.40;;;;;;5042259;28;20037;-64
2022/09/16 07:16:04;;;;;;;3.72;1.15;;;20.70;66.30;;;;;;5042422;28;20112;-63
2022/09/16 07:18:29;;;;;;;8.02;1.35;;;20.70;66.20;;;;;;5041958;28;20045;-64
2022/09/16 07:21:06;;;;;;;6.47;1.33;;;20.70;66.30;;;;;;5042859;28;20053;-64
2022/09/16 07:23:32;;;;;;;4.25;1.10;;;20.70;66.30;;;;;;5041325;28;20021;-63
2022/09/16 07:26:05;;;;;;;4.03;1.00;;;20.70;66.30;;;;;;5041196;28;20111;-63
2022/09/16 07:28:31;;;;;;;5.03;1.25;;;20.70;66.20;;;;;;5044552;28;20567;-64
2022/09/16 07:31:05;;;;;;;5.75;1.10;;;20.70;66.20;;;;;;5045976;28;20036;-64
2022/09/16 07:33:32;;;;;;;4.40;1.00;;;20.70;66.20;;;;;;5045313;28;20025;-63
2022/09/16 07:36:00;;;;;;;3.40;1.13;;;20.70;66.20;;;;;;5046704;28;20432;-63
2022/09/16 07:38:26;;;;;;;4.65;1.10;;;20.70;66.30;;;;;;5047042;28;20112;-64
2022/09/16 07:40:52;;;;;;;5.13;1.30;;;20.70;66.20;;;;;;5042876;28;20137;-63
2022/09/16 07:43:18;;;;;;;4.72;1.25;;;20.70;66.10;;;;;;5045325;28;20045;-63
2022/09/16 07:45:43;;;;;;;3.17;1.17;;;20.70;66.10;;;;;;5046725;28;20013;-64
2022/09/16 07:48:09;;;;;;;5.40;1.20;;;20.70;66.10;;;;;;5046324;28;20059;-63
2022/09/16 07:50:34;;;;;;;5.03;1.20;;;20.70;66.20;;;;;;5046776;28;20397;-64
2022/09/16 07:53:00;;;;;;;3.42;1.20;;;20.70;66.10;;;;;;5044952;28;20037;-64
2022/09/16 07:55:26;;;;;;;6.13;1.40;;;20.70;66.10;;;;;;5045936;28;20025;-64
2022/09/16 07:57:52;;;;;;;1.55;0.93;;;20.70;66.10;;;;;;5047672;28;20036;-64
2022/09/16 08:00:18;;;;;;;4.03;1.00;;;20.70;66.00;;;;;;5046513;28;20040;-64
2022/09/16 08:02:43;;;;;;;4.28;1.15;;;20.70;66.00;;;;;;5045869;28;20029;-63
2022/09/16 08:05:09;;;;;;;4.53;1.10;;;20.70;66.00;;;;;;5044448;28;20040;-64
2022/09/16 08:07:35;;;;;;;2.95;1.10;;;20.70;65.90;;;;;;5042493;28;20110;-63
2022/09/16 08:10:01;;;;;;;4.95;1.10;;;20.70;65.90;;;;;;5045910;28;20452;-64
2022/09/16 08:12:31;;;;;;;3.63;1.10;;;20.80;66.00;;;;;;5045818;28;20078;-64
2022/09/16 08:14:58;;;;;;;4.50;1.10;;;20.80;65.90;;;;;;5043035;28;20033;-64
2022/09/16 08:17:23;;;;;;;3.33;1.00;;;20.80;66.00;;;;;;5041535;28;20076;-63
2022/09/16 08:19:49;;;;;;;4.53;1.05;;;20.80;65.90;;;;;;5044471;28;20076;-64
2022/09/16 08:22:15;;;;;;;3.10;1.02;;;20.80;65.90;;;;;;5045023;28;20067;-64
2022/09/16 08:24:40;;;;;;;3.35;1.10;;;20.80;65.90;;;;;;5042749;28;20040;-64
2022/09/16 08:27:06;;;;;;;3.30;1.00;;;20.80;65.90;;;;;;5041861;28;20030;-64
2022/09/16 08:29:32;;;;;;;4.03;1.20;;;20.80;65.90;;;;;;5046691;28;20041;-64
2022/09/16 08:31:58;;;;;;;4.47;1.10;;;20.80;65.90;;;;;;5046668;28;20032;-63
2022/09/16 08:34:23;;;;;;;2.13;0.90;;;20.80;65.90;;;;;;5043907;28;20029;-64
2022/09/16 08:36:49;;;;;;;3.30;1.00;;;20.80;65.90;;;;;;5046171;28;20040;-64
2022/09/16 08:39:15;;;;;;;4.97;1.08;;;20.80;65.90;;;;;;5042820;28;20048;-63
2022/09/16 08:41:59;;;;;;;2.45;1.00;;;20.80;65.90;;;;;;5043189;28;20498;-64
2022/09/16 08:44:41;;;;;;;2.55;0.90;;;20.80;65.80;;;;;;5044083;28;20047;-64
2022/09/16 08:47:27;;;;;;;4.72;1.20;;;20.90;65.90;;;;;;5041512;28;20024;-64
2022/09/16 08:49:53;;;;;;;2.35;0.80;;;20.80;65.90;;;;;;5044131;28;20029;-64
2022/09/16 08:52:30;;;;;;;3.78;1.00;;;20.90;65.90;;;;;;5026443;28;20118;-64
2022/09/16 08:55:05;;;;;;;2.80;1.05;;;20.90;65.90;;;;;;5043628;28;20037;-64
2022/09/16 08:57:33;;;;;;;3.30;0.95;;;20.80;65.90;;;;;;5043400;28;20052;-64
2022/09/16 09:00:10;;;;;;;2.55;0.88;;;20.90;65.90;;;;;;5026094;28;20048;-63
2022/09/16 09:02:58;;;;;;;2.85;0.88;;;20.90;65.90;;;;;;5026225;28;20114;-64
2022/09/16 09:05:41;;;;;;;2.58;1.00;;;20.90;65.90;;;;;;5040913;28;20100;-64
2022/09/16 09:08:22;;;;;;;3.05;1.00;;;20.90;65.90;;;;;;5045511;28;20033;-64
2022/09/16 09:11:15;;;;;;;1.35;0.80;;;20.90;65.90;;;;;;5025061;28;20370;-64
2022/09/16 09:13:51;;;;;;;3.85;0.95;;;20.90;65.80;;;;;;5043022;28;20083;-64
2022/09/16 09:16:20;;;;;;;3.80;1.00;;;20.90;65.80;;;;;;5025976;28;20108;-64
2022/09/16 09:18:58;;;;;;;3.90;1.17;;;20.90;65.80;;;;;;5043282;28;20044;-64
2022/09/16 09:21:50;;;;;;;4.63;1.20;;;21.00;65.80;;;;;;5044814;28;20047;-64
2022/09/16 09:24:32;;;;;;;1.85;1.00;;;20.90;65.70;;;;;;5027811;28;20142;-64
2022/09/16 09:27:14;;;;;;;4.00;0.90;;;21.00;65.70;;;;;;5041535;28;20501;-64
2022/09/16 09:29:43;;;;;;;4.55;1.20;;;20.90;65.60;;;;;;5025790;28;20041;-64
2022/09/16 09:32:28;;;;;;;3.20;1.13;;;21.00;65.60;;;;;;5041717;28;20033;-64
2022/09/16 09:35:11;;;;;;;4.75;1.23;;;21.00;65.50;;;;;;5043782;28;20040;-64
2022/09/16 09:37:43;;;;;;;4.47;1.05;;;21.00;65.50;;;;;;5042360;28;20072;-64
2022/09/16 09:40:10;;;;;;;3.60;1.00;;;21.00;65.50;;;;;;5028503;28;20078;-64
2022/09/16 09:42:44;;;;;;;2.58;0.82;;;21.00;65.50;;;;;;5025163;28;20032;-64
2022/09/16 09:45:27;;;;;;;2.75;0.82;;;21.00;65.50;;;;;;5024619;28;20025;-64
2022/09/16 09:48:21;;;;;;;3.72;1.05;;;21.00;65.70;;;;;;5024208;28;20033;-64
2022/09/16 09:50:47;;;;;;;3.28;1.02;;;21.00;65.60;;;;;;5023817;28;20064;-64
2022/09/16 09:53:29;;;;;;;2.13;1.00;;;21.00;65.50;;;;;;5028072;28;20683;-63
2022/09/16 09:56:09;;;;;;;2.75;1.00;;;21.00;65.50;;;;;;5022344;28;20107;-64
2022/09/16 09:58:38;;;;;;;2.20;0.90;;;21.00;65.50;;;;;;5044654;28;20035;-63
2022/09/16 10:01:04;;;;;;;2.95;1.00;;;21.00;65.50;;;;;;5024390;28;20032;-65
2022/09/16 10:03:30;;;;;;;2.45;1.00;;;21.00;65.50;;;;;;5041116;28;20032;-64
2022/09/16 10:05:55;;;;;;;1.90;0.95;;;21.00;65.50;;;;;;5044584;28;20052;-64
2022/09/16 10:08:28;;;;;;;2.65;0.70;;;21.10;65.40;;;;;;5039007;28;20412;-64
2022/09/16 10:10:56;;;;;;;2.25;0.80;;;21.10;65.30;;;;;;5042652;28;20131;-64
2022/09/16 10:13:22;;;;;;;3.03;0.90;;;21.10;65.30;;;;;;5040401;28;20146;-63
2022/09/16 10:15:49;;;;;;;2.63;1.00;;;21.10;65.20;;;;;;5042541;28;20413;-64
2022/09/16 10:18:26;;;;;;;1.60;0.80;;;21.20;65.20;;;;;;5023933;28;20120;-64
2022/09/16 10:20:59;;;;;;;2.92;1.13;;;21.20;65.20;;;;;;5043664;28;20095;-64
2022/09/16 10:23:25;;;;;;;2.53;0.93;;;21.20;65.10;;;;;;5042815;28;20497;-63
2022/09/16 10:26:22;;;;;;;1.52;0.90;;;21.20;65.10;;;;;;5040563;28;20064;-64
2022/09/16 10:28:55;;;;;;;3.33;1.00;;;21.20;65.10;;;;;;5044306;28;20656;-63
2022/09/16 10:31:21;;;;;;;3.22;1.00;;;21.30;65.10;;;;;;5041057;28;20025;-63
2022/09/16 10:33:47;;;;;;;2.72;0.68;;;21.20;65.00;;;;;;5022872;28;20033;-64
2022/09/16 10:36:23;;;;;;;2.42;1.10;;;21.30;64.90;;;;;;5041372;28;20044;-64
2022/09/16 10:38:54;;;;;;;2.45;0.90;;;21.30;64.90;;;;;;5023767;28;20501;-64
2022/09/16 10:41:47;;;;;;;2.95;1.00;;;21.30;64.90;;;;;;5020929;28;20071;-64
2022/09/16 10:44:29;;;;;;;2.03;0.88;;;21.30;64.90;;;;;;5009900;28;20094;-64
2022/09/16 10:46:58;;;;;;;1.75;0.93;;;21.40;64.90;;;;;;5040556;28;20102;-64
2022/09/16 10:49:36;;;;;;;1.95;0.95;;;21.40;64.80;;;;;;5039348;28;20036;-64
2022/09/16 10:52:29;;;;;;;1.83;0.90;;;21.40;64.80;;;;;;5023261;28;20029;-64
2022/09/16 10:54:55;;;;;;;2.10;0.90;;;21.40;64.80;;;;;;5037556;28;20041;-64
2022/09/16 10:57:28;;;;;;;2.45;0.90;;;21.40;64.70;;;;;;5041085;28;20067;-64
2022/09/16 11:00:20;;;;;;;2.97;1.00;;;21.40;64.60;;;;;;5043760;28;20029;-63
2022/09/16 11:03:10;;;;;;;1.98;1.00;;;21.50;64.60;;;;;;5032451;28;20070;-64
2022/09/16 11:05:43;;;;;;;1.17;0.85;;;21.50;64.60;;;;;;5045989;28;20033;-64
2022/09/16 11:08:18;;;;;;;2.90;1.10;;;21.50;64.60;;;;;;5046046;28;20033;-64
2022/09/16 11:11:06;;;;;;;2.10;0.90;;;21.60;64.60;;;;;;5028766;28;20508;-64
2022/09/16 11:13:51;;;;;;;2.15;0.95;;;21.60;64.40;;;;;;5032808;28;20429;-64
2022/09/16 11:16:23;;;;;;;2.53;0.80;;;21.60;64.40;;;;;;5043824;28;20027;-64
2022/09/16 11:19:24;;;;;;;2.72;0.90;;;21.60;64.30;;;;;;5026540;28;20462;-64
2022/09/16 11:22:18;;;;;;;1.92;0.80;;;21.70;64.30;;;;;;5024928;28;20569;-64
2022/09/16 11:24:50;;;;;;;3.25;0.90;;;21.70;64.30;;;;;;5022557;28;20026;-64
2022/09/16 11:28:13;;;;;;;2.22;0.90;;;21.70;64.40;;;;;;5025805;28;20570;-64
2022/09/16 11:30:59;;;;;;;2.08;0.70;;;21.70;64.10;;;;;;4984319;28;20527;-64
2022/09/16 11:33:55;;;;;;;3.05;1.00;;;21.70;64.00;;;;;;4963983;28;20042;-64
2022/09/16 11:36:44;;;;;;;3.92;1.00;;;21.70;64.00;;;;;;4983512;28;20043;-64
2022/09/16 11:39:35;;;;;;;2.42;0.90;;;21.80;64.10;;;;;;4964855;28;20143;-64
2022/09/16 11:42:03;;;;;;;1.38;0.80;;;21.80;64.00;;;;;;4964851;28;20038;-64
2022/09/16 11:44:43;;;;;;;3.35;1.00;;;21.80;64.00;;;;;;4936047;28;20043;-64
2022/09/16 11:47:28;;;;;;;1.45;0.80;;;21.80;63.90;;;;;;4965549;28;20105;-64
2022/09/16 11:50:12;;;;;;;3.75;1.10;;;21.80;63.90;;;;;;4967073;28;20050;-64
2022/09/16 11:52:56;;;;;;;1.88;0.90;;;21.90;63.90;;;;;;4949754;28;20034;-64
2022/09/16 11:55:31;;;;;;;1.40;0.80;;;21.90;63.70;;;;;;4965117;28;20066;-64
2022/09/16 11:58:08;;;;;;;1.40;0.60;;;22.00;63.70;;;;;;4948306;28;20421;-64
2022/09/16 12:00:33;;;;;;;2.15;0.95;;;21.90;63.70;;;;;;4955893;28;20065;-64
2022/09/16 12:03:24;;;;;;;1.13;0.82;;;21.90;63.60;;;;;;4984170;28;20125;-65
2022/09/16 12:06:04;;;;;;;2.88;0.82;;;21.90;63.60;;;;;;4970087;28;20491;-65
2022/09/16 12:08:40;;;;;;;2.13;0.70;;;21.90;63.70;;;;;;4965861;28;20158;-65
2022/09/16 12:11:08;;;;;;;2.08;0.82;;;22.00;63.60;;;;;;4976917;28;20089;-64
2022/09/16 12:13:43;;;;;;;1.92;0.70;;;22.00;63.70;;;;;;4984432;28;20038;-64
2022/09/16 12:16:16;;;;;;;2.40;0.80;;;22.00;63.70;;;;;;4985759;28;20072;-65
2022/09/16 12:18:50;;;;;;;3.80;1.20;;;22.00;63.70;;;;;;5025076;28;20033;-64
2022/09/16 12:21:33;;;;;;;2.35;0.95;;;22.10;63.50;;;;;;5023778;28;20029;-64
2022/09/16 12:24:12;;;;;;;1.70;0.77;;;22.10;63.60;;;;;;5004690;28;20033;-63
2022/09/16 12:26:58;;;;;;;1.63;0.68;;;22.10;63.50;;;;;;5024797;28;20037;-64
2022/09/16 12:29:39;;;;;;;3.47;0.98;;;22.20;63.80;;;;;;5007209;28;20178;-64
2022/09/16 12:32:13;;;;;;;2.00;0.80;;;22.30;63.40;;;;;;5021399;28;20121;-64
2022/09/16 12:34:54;;;;;;;2.03;0.90;;;22.30;63.20;;;;;;5023830;28;20024;-64
2022/09/16 12:37:48;;;;;;;1.92;0.80;;;22.30;63.10;;;;;;5021990;28;20060;-64
2022/09/16 12:40:23;;;;;;;2.15;0.80;;;22.40;62.80;;;;;;5022373;28;20037;-64
2022/09/16 12:43:16;;;;;;;1.70;0.90;;;22.50;62.80;;;;;;5024140;28;20025;-64
2022/09/16 12:46:00;;;;;;;2.42;0.88;;;22.50;62.80;;;;;;5025418;28;20026;-64
2022/09/16 12:48:41;;;;;;;1.08;0.63;;;22.50;62.70;;;;;;5024036;28;20041;-64
2022/09/16 12:51:42;;;;;;;1.52;0.70;;;22.60;62.70;;;;;;5023322;28;20108;-64
2022/09/16 12:54:29;;;;;;;2.03;0.80;;;22.60;62.50;;;;;;5021595;28;20143;-64
2022/09/16 12:57:08;;;;;;;2.88;0.90;;;22.70;62.30;;;;;;5026814;28;20029;-64
2022/09/16 12:59:55;;;;;;;2.03;0.75;;;22.70;62.30;;;;;;5021621;28;20037;-64
2022/09/16 13:02:22;;;;;;;1.90;0.88;;;22.80;62.20;;;;;;5020896;28;20502;-64
2022/09/16 13:04:52;;;;;;;1.83;0.90;;;22.80;62.00;;;;;;5006332;28;20675;-64
2022/09/16 13:07:28;;;;;;;2.15;0.70;;;22.90;62.10;;;;;;5022235;28;20156;-64
2022/09/16 13:10:26;;;;;;;2.45;0.90;;;22.90;62.00;;;;;;5023004;28;20030;-64
2022/09/16 13:12:53;;;;;;;2.80;0.80;;;22.90;61.90;;;;;;4982112;28;20033;-64
2022/09/16 13:15:35;;;;;;;0.75;0.57;;;23.00;61.70;;;;;;4968701;28;20114;-64